Time;durP1;ratioP1;P1;durP2;ratioP2;P2;SDS_P1;SDS_P2;PMS_P1;PMS_P2;Temp;Humidity;BMP_temperature;BMP_pressure;BME280_temperature;BME280_humidity;BME280_pressure;Samples;Min_cycle;Max_cycle;Signal;HPM_P1;HPM_P2
2023/04/03 00:04:48;;;;;;;5.38;2.35;;;;;;;;;;10291892;28;20030;-49
2023/04/03 00:09:49;;;;;;;8.32;2.45;;;;;;;;;;10292222;28;20070;-48
2023/04/03 00:14:49;;;;;;;3.97;2.10;;;;;;;;;;10304593;28;20023;-49
2023/04/03 00:19:50;;;;;;;5.43;2.75;;;;;;;;;;10298770;28;20026;-49
2023/04/03 00:24:50;;;;;;;5.68;2.45;;;;;;;;;;10306561;28;20030;-50
2023/04/03 00:29:51;;;;;;;5.43;1.98;;;;;;;;;;10321231;28;20023;-49
2023/04/03 00:34:52;;;;;;;3.63;2.20;;;;;;;;;;10293173;28;20151;-48
2023/04/03 00:39:52;;;;;;;2.47;2.03;;;;;;;;;;10297831;28;20037;-48
2023/04/03 00:44:56;;;;;;;3.22;1.98;;;;;;;;;;10297690;28;20259;-49
2023/04/03 00:49:58;;;;;;;3.67;1.88;;;;;;;;;;10302308;28;20023;-49
2023/04/03 00:55:05;;;;;;;2.97;2.00;;;;;;;;;;10292496;28;20454;-49
2023/04/03 01:00:14;;;;;;;5.20;2.30;;;;;;;;;;10297454;28;20379;-49
2023/04/03 01:05:16;;;;;;;3.90;1.88;;;;;;;;;;10293986;28;20295;-50
2023/04/03 01:10:19;;;;;;;4.60;2.55;;;;;;;;;;10304137;28;20322;-48
2023/04/03 01:15:24;;;;;;;5.57;2.00;;;;;;;;;;10293413;28;20041;-50
2023/04/03 01:20:28;;;;;;;5.18;2.53;;;;;;;;;;10290685;28;20038;-51
2023/04/03 01:25:29;;;;;;;3.17;2.13;;;;;;;;;;10303402;28;20034;-50
2023/04/03 01:30:53;;;;;;;3.97;2.00;;;;;;;;;;10288270;28;20027;-50
2023/04/03 01:35:54;;;;;;;2.67;2.10;;;;;;;;;;10293422;28;20058;-49
2023/04/03 01:40:54;;;;;;;2.90;2.35;;;;;;;;;;10300366;28;20186;-49
2023/04/03 01:45:55;;;;;;;2.92;1.92;;;;;;;;;;10311252;28;20537;-50
2023/04/03 01:50:56;;;;;;;6.20;2.10;;;;;;;;;;10288544;28;20474;-50
2023/04/03 01:55:56;;;;;;;3.05;2.00;;;;;;;;;;10293946;28;20047;-49
2023/04/03 02:00:57;;;;;;;3.75;2.05;;;;;;;;;;10310362;28;20030;-49
2023/04/03 02:05:58;;;;;;;6.10;2.53;;;;;;;;;;10290371;28;20037;-60
2023/04/03 02:10:59;;;;;;;2.75;1.90;;;;;;;;;;10296185;28;20018;-49
2023/04/03 02:16:05;;;;;;;2.90;1.98;;;;;;;;;;10306088;28;20037;-49
2023/04/03 02:21:06;;;;;;;2.88;1.83;;;;;;;;;;10324601;28;20026;-48
2023/04/03 02:26:13;;;;;;;3.33;1.88;;;;;;;;;;10297986;28;20423;-49
2023/04/03 02:31:14;;;;;;;2.95;2.20;;;;;;;;;;10309718;28;20027;-49
2023/04/03 02:36:14;;;;;;;2.40;1.90;;;;;;;;;;10306423;28;20047;-53
2023/04/03 02:41:15;;;;;;;2.47;1.80;;;;;;;;;;10296933;28;20043;-49
2023/04/03 02:46:16;;;;;;;2.95;1.90;;;;;;;;;;10321079;28;20030;-50
2023/04/03 02:51:17;;;;;;;2.10;1.60;;;;;;;;;;10311254;28;20109;-48
2023/04/03 02:56:19;;;;;;;2.65;1.70;;;;;;;;;;10308107;28;20414;-49
2023/04/03 03:01:19;;;;;;;3.03;1.70;;;;;;;;;;10307914;28;20030;-48
2023/04/03 03:06:20;;;;;;;3.58;1.85;;;;;;;;;;10305820;28;20505;-49
2023/04/03 03:11:20;;;;;;;3.25;1.92;;;;;;;;;;10293323;28;20105;-49
2023/04/03 03:16:21;;;;;;;2.05;1.77;;;;;;;;;;10292551;28;20034;-50
2023/04/03 03:21:22;;;;;;;2.38;1.52;;;;;;;;;;10304340;28;20030;-48
2023/04/03 03:26:22;;;;;;;2.25;1.75;;;;;;;;;;10295927;28;20085;-49
2023/04/03 03:31:23;;;;;;;2.72;1.65;;;;;;;;;;10304370;28;20493;-50
2023/04/03 03:36:23;;;;;;;2.47;1.83;;;;;;;;;;10307869;28;20034;-49
2023/04/03 03:41:24;;;;;;;2.10;1.67;;;;;;;;;;10305196;28;20034;-50
2023/04/03 03:46:25;;;;;;;2.47;1.60;;;;;;;;;;10319753;28;20036;-52
2023/04/03 03:51:25;;;;;;;5.95;2.47;;;;;;;;;;10304922;28;20034;-48
2023/04/03 03:56:26;;;;;;;3.75;1.60;;;;;;;;;;10298268;28;20042;-48
2023/04/03 04:01:26;;;;;;;1.90;1.70;;;;;;;;;;10306636;28;20538;-48
2023/04/03 04:06:27;;;;;;;2.67;1.80;;;;;;;;;;10300750;28;20486;-48
2023/04/03 04:11:28;;;;;;;2.22;1.55;;;;;;;;;;10297965;28;20442;-48
2023/04/03 04:16:28;;;;;;;2.10;1.63;;;;;;;;;;10292559;28;20031;-48
2023/04/03 04:21:29;;;;;;;1.50;1.40;;;;;;;;;;10308895;28;20595;-49
2023/04/03 04:26:29;;;;;;;2.72;1.70;;;;;;;;;;10324419;28;20026;-48
2023/04/03 04:31:30;;;;;;;2.28;1.60;;;;;;;;;;10291616;28;20034;-50
2023/04/03 04:36:30;;;;;;;2.53;1.60;;;;;;;;;;10322233;28;20034;-48
2023/04/03 04:41:31;;;;;;;2.33;1.85;;;;;;;;;;10292926;28;20026;-63
2023/04/03 04:46:32;;;;;;;1.92;1.65;;;;;;;;;;10304135;28;20034;-48
2023/04/03 04:51:32;;;;;;;3.70;1.55;;;;;;;;;;10303693;28;20039;-47
2023/04/03 04:56:33;;;;;;;1.52;1.42;;;;;;;;;;10309485;28;20066;-50
2023/04/03 05:01:33;;;;;;;1.55;1.45;;;;;;;;;;10315842;28;20247;-70
2023/04/03 05:06:34;;;;;;;4.03;1.80;;;;;;;;;;10317422;28;20041;-67
2023/04/03 05:11:35;;;;;;;2.33;1.65;;;;;;;;;;10313550;28;20401;-70
2023/04/03 05:16:36;;;;;;;1.33;1.23;;;;;;;;;;10318937;28;20030;-64
2023/04/03 05:21:36;;;;;;;1.88;1.42;;;;;;;;;;10322869;28;20074;-70
2023/04/03 05:26:38;;;;;;;2.60;1.70;;;;;;;;;;10315351;28;20029;-70
2023/04/03 05:31:38;;;;;;;3.67;1.48;;;;;;;;;;10321977;28;20080;-63
2023/04/03 05:36:39;;;;;;;1.85;1.45;;;;;;;;;;10316200;28;20096;-71
2023/04/03 05:41:40;;;;;;;5.57;1.75;;;;;;;;;;10320758;28;20030;-49
2023/04/03 05:46:41;;;;;;;8.63;1.40;;;;;;;;;;10312046;28;20066;-47
2023/04/03 05:51:41;;;;;;;6.45;1.63;;;;;;;;;;10303616;28;20035;-51
2023/04/03 05:56:42;;;;;;;2.50;1.75;;;;;;;;;;10301350;28;20034;-49
2023/04/03 06:01:43;;;;;;;9.98;1.80;;;;;;;;;;10330742;28;20038;-51
2023/04/03 06:06:51;;;;;;;6.47;1.75;;;;;;;;;;10311180;28;20502;-53
2023/04/03 06:11:52;;;;;;;6.55;2.38;;;;;;;;;;10312478;28;20399;-57
2023/04/03 06:16:53;;;;;;;16.48;2.47;;;;;;;;;;10335386;28;20368;-55
2023/04/03 06:21:54;;;;;;;8.02;2.33;;;;;;;;;;10329240;28;20026;-55
2023/04/03 06:26:55;;;;;;;4.80;2.22;;;;;;;;;;10320564;28;20054;-57
2023/04/03 06:31:56;;;;;;;5.85;2.08;;;;;;;;;;10327514;28;20461;-56
2023/04/03 06:36:56;;;;;;;8.10;2.22;;;;;;;;;;10329900;28;20045;-53
2023/04/03 06:41:57;;;;;;;6.95;2.65;;;;;;;;;;10322417;28;20105;-55
2023/04/03 06:46:58;;;;;;;8.95;2.58;;;;;;;;;;10304314;28;20495;-57
2023/04/03 06:51:58;;;;;;;8.82;2.55;;;;;;;;;;10306498;28;20526;-56
2023/04/03 06:56:59;;;;;;;10.13;2.28;;;;;;;;;;10306079;28;20471;-55
2023/04/03 07:02:00;;;;;;;3.97;2.38;;;;;;;;;;10294817;28;20267;-57
2023/04/03 07:07:00;;;;;;;10.18;2.17;;;;;;;;;;10306859;28;20443;-57
2023/04/03 07:12:01;;;;;;;5.75;1.92;;;;;;;;;;10293983;28;20031;-55
2023/04/03 07:17:02;;;;;;;8.13;2.15;;;;;;;;;;10294430;28;20019;-53
2023/04/03 07:22:03;;;;;;;4.30;2.10;;;;;;;;;;10293966;28;20031;-59
2023/04/03 07:27:04;;;;;;;3.40;1.90;;;;;;;;;;10317949;28;20117;-60
2023/04/03 07:32:06;;;;;;;1.90;1.67;;;;;;;;;;10313429;28;20526;-56
2023/04/03 07:37:08;;;;;;;2.00;1.63;;;;;;;;;;10305417;28;20035;-63
2023/04/03 07:42:09;;;;;;;4.68;2.03;;;;;;;;;;10297116;28;20025;-61
2023/04/03 07:47:10;;;;;;;4.82;2.00;;;;;;;;;;10302287;28;20386;-53
2023/04/03 07:52:11;;;;;;;3.92;1.60;;;;;;;;;;10305543;28;20050;-63
2023/04/03 07:57:12;;;;;;;4.03;2.03;;;;;;;;;;10293078;28;20039;-55
2023/04/03 08:02:12;;;;;;;3.20;1.80;;;;;;;;;;10317264;28;20030;-58
2023/04/03 08:07:13;;;;;;;5.07;1.90;;;;;;;;;;10305103;28;20110;-53
2023/04/03 08:12:14;;;;;;;3.60;2.00;;;;;;;;;;10303968;28;20030;-54
2023/04/03 08:17:15;;;;;;;5.07;1.70;;;;;;;;;;10328395;28;20036;-60
2023/04/03 08:22:15;;;;;;;6.30;1.73;;;;;;;;;;10292399;28;20030;-55
2023/04/03 08:27:16;;;;;;;9.52;2.30;;;;;;;;;;10291203;28;20575;-56
2023/04/03 08:32:17;;;;;;;5.45;2.13;;;;;;;;;;10317580;28;20475;-63
2023/04/03 08:37:19;;;;;;;7.43;2.22;;;;;;;;;;10307190;28;20175;-55
2023/04/03 08:42:56;;;;;;;3.70;1.80;;;;;;;;;;10291408;28;20122;-55
2023/04/03 08:48:10;;;;;;;3.33;1.60;;;;;;;;;;10304090;28;20023;-52
2023/04/03 08:53:20;;;;;;;3.00;1.77;;;;;;;;;;10290769;28;20130;-55
2023/04/03 08:58:37;;;;;;;5.30;1.80;;;;;;;;;;10290135;28;20034;-54
2023/04/03 09:03:40;;;;;;;5.20;2.00;;;;;;;;;;10289181;28;20046;-55
2023/04/03 09:09:12;;;;;;;2.92;1.80;;;;;;;;;;10282030;28;20027;-53
2023/04/03 09:14:38;;;;;;;4.35;1.65;;;;;;;;;;10300400;28;20034;-57
2023/04/03 09:20:24;;;;;;;3.58;1.75;;;;;;;;;;10291571;28;20493;-54
2023/04/03 09:25:34;;;;;;;4.72;1.92;;;;;;;;;;10293118;28;20120;-54
2023/04/03 09:30:36;;;;;;;2.72;1.63;;;;;;;;;;10275017;28;20178;-53
2023/04/03 09:35:40;;;;;;;4.60;1.42;;;;;;;;;;10302042;28;20278;-54
2023/04/03 09:41:02;;;;;;;3.58;1.60;;;;;;;;;;10275012;28;20023;-57
2023/04/03 09:46:24;;;;;;;6.13;1.75;;;;;;;;;;10297378;28;20057;-54
2023/04/03 09:51:28;;;;;;;2.90;1.63;;;;;;;;;;10290891;28;20027;-57
2023/04/03 09:56:30;;;;;;;3.33;1.73;;;;;;;;;;10314481;28;20058;-64
2023/04/03 10:01:38;;;;;;;2.28;1.48;;;;;;;;;;10282215;28;20125;-55
2023/04/03 10:06:47;;;;;;;4.45;1.67;;;;;;;;;;10304345;28;20062;-53
2023/04/03 10:12:08;;;;;;;4.75;1.67;;;;;;;;;;10301088;28;20125;-58
2023/04/03 10:17:09;;;;;;;2.88;1.58;;;;;;;;;;10290149;28;20459;-61
2023/04/03 10:22:27;;;;;;;3.25;1.90;;;;;;;;;;10302310;28;20566;-55
2023/04/03 10:28:00;;;;;;;3.75;1.65;;;;;;;;;;10311613;28;20031;-54
2023/04/03 10:33:56;;;;;;;4.43;1.90;;;;;;;;;;10307915;28;20030;-51
2023/04/03 10:39:09;;;;;;;2.55;1.60;;;;;;;;;;10310486;28;20031;-53
2023/04/03 10:45:00;;;;;;;3.00;1.50;;;;;;;;;;10303587;28;20094;-55
2023/04/03 10:50:29;;;;;;;1.52;1.42;;;;;;;;;;10295123;28;20038;-54
2023/04/03 10:55:53;;;;;;;1.90;1.60;;;;;;;;;;10291929;28;20051;-56
2023/04/03 11:01:01;;;;;;;3.88;1.40;;;;;;;;;;10311635;28;20027;-59
2023/04/03 11:06:07;;;;;;;2.13;1.73;;;;;;;;;;10301069;28;20022;-55
2023/04/03 11:11:19;;;;;;;3.78;1.70;;;;;;;;;;10307947;28;20037;-56
2023/04/03 11:16:28;;;;;;;2.15;1.63;;;;;;;;;;10312572;28;20030;-55
2023/04/03 11:21:34;;;;;;;;;;;;;;;;;;10314134;28;20031;-61
2023/04/03 11:26:42;;;;;;;2.75;1.42;;;;;;;;;;10283450;28;19918;-57
2023/04/03 11:31:57;;;;;;;3.03;1.75;;;;;;;;;;10309427;28;20062;-53
2023/04/03 11:37:01;;;;;;;2.47;1.50;;;;;;;;;;10298071;28;20029;-61
2023/04/03 11:42:25;;;;;;;2.85;1.80;;;;;;;;;;10293048;28;20471;-61
2023/04/03 11:47:49;;;;;;;1.55;1.30;;;;;;;;;;10312938;28;20023;-60
2023/04/03 11:52:49;;;;;;;2.05;1.52;;;;;;;;;;10299120;28;20725;-55
2023/04/03 11:57:58;;;;;;;2.35;1.73;;;;;;;;;;10305490;28;20041;-61
2023/04/03 12:02:59;;;;;;;2.17;1.58;;;;;;;;;;10300225;28;20022;-62
2023/04/03 12:08:29;;;;;;;1.48;1.38;;;;;;;;;;10304370;28;20027;-63
2023/04/03 12:13:30;;;;;;;6.78;1.50;;;;;;;;;;10304341;28;20030;-65
2023/04/03 12:18:43;;;;;;;2.90;1.50;;;;;;;;;;10312564;28;20023;-62
2023/04/03 12:24:09;;;;;;;2.40;1.58;;;;;;;;;;10311814;28;20163;-62
2023/04/03 12:29:40;;;;;;;4.57;1.70;;;;;;;;;;10304113;28;20053;-55
2023/04/03 12:35:26;;;;;;;1.73;1.48;;;;;;;;;;10312994;28;20038;-58
2023/04/03 12:40:41;;;;;;;4.00;1.67;;;;;;;;;;10302951;28;20118;-54
2023/04/03 12:46:06;;;;;;;4.10;1.70;;;;;;;;;;10294932;28;20414;-58
2023/04/03 12:51:07;;;;;;;4.28;1.75;;;;;;;;;;10318486;28;20054;-63
2023/04/03 12:56:20;;;;;;;3.78;1.63;;;;;;;;;;10301210;28;20058;-58
2023/04/03 13:01:25;;;;;;;3.00;1.75;;;;;;;;;;10306059;28;20398;-58
2023/04/03 13:06:42;;;;;;;2.03;1.52;;;;;;;;;;10325017;28;20077;-55
2023/04/03 13:11:44;;;;;;;3.33;1.90;;;;;;;;;;10322980;28;20100;-58
2023/04/03 13:17:10;;;;;;;5.90;1.58;;;;;;;;;;10312289;28;20425;-66
2023/04/03 13:22:32;;;;;;;3.45;1.55;;;;;;;;;;10322941;28;20026;-57
2023/04/03 13:27:33;;;;;;;2.30;1.70;;;;;;;;;;10323469;28;20372;-57
2023/04/03 13:32:34;;;;;;;2.92;1.83;;;;;;;;;;10290104;28;20034;-62
2023/04/03 13:37:35;;;;;;;3.40;1.45;;;;;;;;;;10293786;28;20035;-63
2023/04/03 13:42:41;;;;;;;2.17;1.52;;;;;;;;;;10320996;28;20263;-65
2023/04/03 13:47:45;;;;;;;1.85;1.60;;;;;;;;;;10323176;28;20113;-68
2023/04/03 13:52:51;;;;;;;5.38;2.05;;;;;;;;;;10313250;28;20508;-57
2023/04/03 13:58:21;;;;;;;2.08;1.52;;;;;;;;;;10320630;28;20290;-54
2023/04/03 14:03:30;;;;;;;1.80;1.63;;;;;;;;;;10324321;28;20041;-56
2023/04/03 14:08:30;;;;;;;2.72;1.38;;;;;;;;;;10331013;28;20446;-54
2023/04/03 14:13:32;;;;;;;8.93;1.73;;;;;;;;;;10330556;28;20030;-57
2023/04/03 14:18:32;;;;;;;2.50;1.63;;;;;;;;;;10312440;28;20056;-58
2023/04/03 14:23:33;;;;;;;4.35;2.03;;;;;;;;;;10329865;28;20045;-58
2023/04/03 14:28:34;;;;;;;2.45;1.48;;;;;;;;;;10329105;28;20027;-65
2023/04/03 14:33:35;;;;;;;2.60;1.55;;;;;;;;;;10315903;28;20029;-55
2023/04/03 14:38:36;;;;;;;3.80;1.90;;;;;;;;;;10296128;28;20022;-53
2023/04/03 14:43:36;;;;;;;1.95;1.50;;;;;;;;;;10312000;28;20029;-60
2023/04/03 14:48:37;;;;;;;2.17;1.73;;;;;;;;;;10305710;28;20034;-64
2023/04/03 14:53:40;;;;;;;1.80;1.33;;;;;;;;;;10393691;23;20054;-47
2023/04/03 14:58:42;;;;;;;3.30;1.63;;;;;;;;;;10420842;28;20026;-47
2023/04/03 15:03:44;;;;;;;1.73;1.20;;;;;;;;;;10419866;28;20037;-50
2023/04/03 15:08:48;;;;;;;1.50;1.38;;;;;;;;;;10419952;28;20025;-46
2023/04/03 15:13:49;;;;;;;5.55;1.75;;;;;;;;;;10419578;28;20021;-48
2023/04/03 15:18:51;;;;;;;2.33;1.50;;;;;;;;;;10418545;28;20057;-51
2023/04/03 15:23:52;;;;;;;2.03;1.50;;;;;;;;;;10419071;28;20071;-46
2023/04/03 15:28:54;;;;;;;1.83;1.42;;;;;;;;;;10419701;28;20025;-49
2023/04/03 15:33:56;;;;;;;2.42;1.63;;;;;;;;;;10418780;28;20073;-46
2023/04/03 15:38:57;;;;;;;1.30;1.20;;;;;;;;;;10418700;28;20033;-46
2023/04/03 15:43:59;;;;;;;1.75;1.30;;;;;;;;;;10418408;28;20412;-49
2023/04/03 15:49:02;;;;;;;1.55;1.45;;;;;;;;;;10418273;28;20025;-46
2023/04/03 15:54:04;;;;;;;5.03;1.70;;;;;;;;;;10417827;28;20043;-47
2023/04/03 15:59:05;;;;;;;5.00;1.50;;;;;;;;;;10418437;28;20025;-46
2023/04/03 16:04:10;;;;;;;2.33;1.30;;;;;;;;;;10417569;28;20037;-51
2023/04/03 16:09:12;;;;;;;1.75;1.40;;;;;;;;;;10417484;28;20027;-46
2023/04/03 16:14:14;;;;;;;1.42;1.33;;;;;;;;;;10417187;28;20033;-49
2023/04/03 16:19:16;;;;;;;3.33;1.73;;;;;;;;;;10416903;28;20378;-49
2023/04/03 16:24:17;;;;;;;2.72;1.52;;;;;;;;;;10415499;28;20405;-48
2023/04/03 16:29:19;;;;;;;2.85;1.65;;;;;;;;;;10416433;28;20111;-49
2023/04/03 16:34:21;;;;;;;1.30;1.20;;;;;;;;;;10416233;28;20087;-48
2023/04/03 16:39:22;;;;;;;2.35;1.67;;;;;;;;;;10416108;28;20033;-50
2023/04/03 16:44:24;;;;;;;2.38;1.30;;;;;;;;;;10415837;28;20112;-49
2023/04/03 16:49:29;;;;;;;1.42;1.27;;;;;;;;;;10415845;28;20021;-47
2023/04/03 16:54:33;;;;;;;2.03;1.67;;;;;;;;;;10415444;28;20549;-47
2023/04/03 16:59:36;;;;;;;3.08;1.70;;;;;;;;;;10415789;28;20043;-46
2023/04/03 17:04:37;;;;;;;2.42;1.52;;;;;;;;;;10415556;28;20029;-46
2023/04/03 17:09:39;;;;;;;1.60;1.50;;;;;;;;;;10415247;28;20044;-49
2023/04/03 17:14:41;;;;;;;2.08;1.60;;;;;;;;;;10415048;28;20029;-51
2023/04/03 17:19:44;;;;;;;2.28;1.60;;;;;;;;;;10415299;28;20022;-46
2023/04/03 17:24:46;;;;;;;5.80;1.80;;;;;;;;;;10415059;28;20048;-47
2023/04/03 17:29:47;;;;;;;3.47;1.50;;;;;;;;;;10415155;28;20049;-48
2023/04/03 17:34:49;;;;;;;3.20;1.73;;;;;;;;;;10414827;28;20123;-49
2023/04/03 17:39:50;;;;;;;3.15;1.83;;;;;;;;;;10418832;28;20032;-48
2023/04/03 17:44:52;;;;;;;3.88;2.33;;;;;;;;;;10423002;28;20021;-48
2023/04/03 17:49:54;;;;;;;5.47;2.20;;;;;;;;;;10422735;28;20104;-51
2023/04/03 17:54:55;;;;;;;5.07;2.85;;;;;;;;;;10422613;28;20386;-47
2023/04/03 17:59:57;;;;;;;4.70;3.20;;;;;;;;;;10423009;28;20029;-47
2023/04/03 18:04:59;;;;;;;3.92;2.70;;;;;;;;;;10422885;28;20124;-51
2023/04/03 18:10:03;;;;;;;5.53;2.97;;;;;;;;;;10422034;28;20026;-49
2023/04/03 18:15:06;;;;;;;4.03;3.20;;;;;;;;;;10421935;28;20108;-50
2023/04/03 18:20:10;;;;;;;4.90;3.15;;;;;;;;;;10421741;28;20025;-48
2023/04/03 18:25:13;;;;;;;4.60;3.70;;;;;;;;;;10421329;28;20095;-49
2023/04/03 18:30:16;;;;;;;7.25;4.80;;;;;;;;;;10421316;28;20030;-45
2023/04/03 18:35:18;;;;;;;6.93;4.50;;;;;;;;;;10422347;28;20036;-47
2023/04/03 18:40:19;;;;;;;9.85;4.40;;;;;;;;;;10420996;28;20025;-48
2023/04/03 18:45:22;;;;;;;5.82;4.55;;;;;;;;;;10421360;28;20061;-46
2023/04/03 18:50:24;;;;;;;5.88;4.20;;;;;;;;;;10419310;28;20104;-48
2023/04/03 18:55:26;;;;;;;5.25;4.20;;;;;;;;;;10420299;28;20426;-47
2023/04/03 19:00:28;;;;;;;5.45;3.92;;;;;;;;;;10420187;28;20026;-50
2023/04/03 19:05:30;;;;;;;6.03;4.25;;;;;;;;;;10419885;28;20033;-45
2023/04/03 19:10:33;;;;;;;7.80;4.40;;;;;;;;;;10420962;28;20053;-48
2023/04/03 19:15:33;;;;;;;7.00;4.32;;;;;;;;;;10404466;28;20121;-49
2023/04/03 19:20:35;;;;;;;9.55;4.43;;;;;;;;;;10396079;28;20380;-50
2023/04/03 19:25:37;;;;;;;5.10;3.65;;;;;;;;;;10410763;28;20038;-49
2023/04/03 19:30:37;;;;;;;6.75;4.13;;;;;;;;;;10402819;28;20505;-48
2023/04/03 19:35:40;;;;;;;6.68;3.65;;;;;;;;;;10407990;28;20029;-48
2023/04/03 19:40:45;;;;;;;7.30;3.97;;;;;;;;;;10400641;28;20038;-53
2023/04/03 19:45:45;;;;;;;8.02;4.15;;;;;;;;;;10409266;28;20031;-50
2023/04/03 19:50:48;;;;;;;9.40;3.40;;;;;;;;;;10459249;23;20005;-67
2023/04/03 19:55:50;;;;;;;7.70;3.28;;;;;;;;;;10377834;28;20038;-58
2023/04/03 20:00:52;;;;;;;5.63;3.00;;;;;;;;;;10376586;28;20018;-56
2023/04/03 20:05:56;;;;;;;4.00;2.55;;;;;;;;;;10377272;28;20030;-58
2023/04/03 20:10:59;;;;;;;4.15;2.92;;;;;;;;;;10377803;28;20115;-57
2023/04/03 20:16:06;;;;;;;11.60;2.70;;;;;;;;;;10376345;28;20034;-58
2023/04/03 20:21:09;;;;;;;3.95;2.50;;;;;;;;;;10376111;28;20099;-57
2023/04/03 20:26:22;;;;;;;6.93;2.67;;;;;;;;;;10376014;28;20087;-58
2023/04/03 20:31:27;;;;;;;4.82;2.35;;;;;;;;;;10375795;28;20068;-58
2023/04/03 20:36:29;;;;;;;3.88;2.50;;;;;;;;;;10376268;28;20060;-56
2023/04/03 20:41:34;;;;;;;3.90;2.13;;;;;;;;;;10375426;28;20034;-57
2023/04/03 20:46:36;;;;;;;2.83;2.00;;;;;;;;;;10375232;28;20161;-56
2023/04/03 20:51:38;;;;;;;8.48;2.58;;;;;;;;;;10375497;28;20058;-56
2023/04/03 20:56:39;;;;;;;13.70;3.75;;;;;;;;;;10374980;28;20461;-56
2023/04/03 21:01:41;;;;;;;11.52;2.65;;;;;;;;;;10374826;28;20037;-54
2023/04/03 21:07:38;;;;;;;10.80;2.88;;;;;;;;;;10374737;28;20474;-56
2023/04/03 21:13:36;;;;;;;13.82;3.08;;;;;;;;;;10373847;28;20052;-57
2023/04/03 21:19:19;;;;;;;6.80;2.80;;;;;;;;;;10374479;28;20033;-56
2023/04/03 21:24:21;;;;;;;11.30;2.92;;;;;;;;;;10371984;28;20041;-54
2023/04/03 21:29:23;;;;;;;7.72;2.65;;;;;;;;;;10373115;28;20033;-58
2023/04/03 21:34:27;;;;;;;7.88;2.55;;;;;;;;;;10374062;28;20042;-58
2023/04/03 21:39:29;;;;;;;5.47;2.20;;;;;;;;;;10373913;28;20034;-57
2023/04/03 21:44:31;;;;;;;10.38;2.70;;;;;;;;;;10373856;28;20089;-57
2023/04/03 21:49:33;;;;;;;9.65;2.63;;;;;;;;;;10374489;28;20088;-57
2023/04/03 21:54:35;;;;;;;6.38;2.40;;;;;;;;;;10373461;28;20042;-56
2023/04/03 21:59:37;;;;;;;8.48;2.20;;;;;;;;;;10374266;28;20029;-57
2023/04/03 22:04:38;;;;;;;6.53;2.33;;;;;;;;;;10374015;28;20041;-57
2023/04/03 22:09:40;;;;;;;4.55;1.92;;;;;;;;;;10373482;28;20381;-58
2023/04/03 22:14:42;;;;;;;6.03;2.40;;;;;;;;;;10373450;28;20022;-58
2023/04/03 22:19:44;;;;;;;6.80;2.22;;;;;;;;;;10373217;28;20084;-55
2023/04/03 22:24:46;;;;;;;5.60;2.10;;;;;;;;;;10375211;28;20092;-58
2023/04/03 22:29:47;;;;;;;5.97;2.30;;;;;;;;;;10380521;28;20037;-57
2023/04/03 22:34:49;;;;;;;7.15;2.00;;;;;;;;;;10380256;28;20029;-57
2023/04/03 22:39:52;;;;;;;3.67;1.88;;;;;;;;;;10379950;28;20033;-57
2023/04/03 22:44:54;;;;;;;2.67;1.90;;;;;;;;;;10380461;28;20034;-58
2023/04/03 22:49:56;;;;;;;4.20;2.00;;;;;;;;;;10380825;28;20034;-57
2023/04/03 22:54:57;;;;;;;3.97;2.05;;;;;;;;;;10379421;28;20116;-58
2023/04/03 22:59:59;;;;;;;9.80;2.30;;;;;;;;;;10379294;28;20072;-56
2023/04/03 23:05:00;;;;;;;5.22;2.15;;;;;;;;;;10379107;28;20026;-56
2023/04/03 23:10:02;;;;;;;6.57;2.03;;;;;;;;;;10379995;28;20022;-57
2023/04/03 23:15:05;;;;;;;7.22;2.00;;;;;;;;;;10378815;28;20030;-57
2023/04/03 23:20:08;;;;;;;7.70;1.80;;;;;;;;;;10379100;28;20476;-56
2023/04/03 23:25:10;;;;;;;4.40;1.83;;;;;;;;;;10378300;28;20107;-57
2023/04/03 23:30:12;;;;;;;2.67;1.70;;;;;;;;;;10378017;28;20129;-57
2023/04/03 23:35:13;;;;;;;3.78;2.03;;;;;;;;;;10377924;28;20025;-57
2023/04/03 23:40:15;;;;;;;5.35;1.83;;;;;;;;;;10377155;28;20076;-57
2023/04/03 23:45:17;;;;;;;6.97;1.92;;;;;;;;;;10378099;28;20450;-58
2023/04/03 23:50:19;;;;;;;4.43;2.00;;;;;;;;;;10377329;28;20026;-58
2023/04/03 23:55:21;;;;;;;6.68;1.70;;;;;;;;;;10376943;28;20124;-58
